sensor_id;sensor_type;location;lat;lon;timestamp;pressure;altitude;pressure_sealevel;temperature;humidity
60267;BME280;46125;61.360;-149.532;2022-11-14T00:01:07;97475.22;;;5.31;49.29
60267;BME280;46125;61.360;-149.532;2022-11-14T00:03:36;97472.54;;;5.44;50.23
60267;BME280;46125;61.360;-149.532;2022-11-14T00:06:05;97463.60;;;4.49;52.10
60267;BME280;46125;61.360;-149.532;2022-11-14T00:08:35;97457.05;;;4.98;51.95
60267;BME280;46125;61.360;-149.532;2022-11-14T00:11:03;97465.97;;;3.83;55.91
60267;BME280;46125;61.360;-149.532;2022-11-14T00:13:32;97458.21;;;3.33;56.09
60267;BME280;46125;61.360;-149.532;2022-11-14T00:16:00;97450.14;;;4.75;54.17
60267;BME280;46125;61.360;-149.532;2022-11-14T00:18:29;97447.63;;;4.53;53.42
60267;BME280;46125;61.360;-149.532;2022-11-14T00:20:57;97444.43;;;4.90;52.60
60267;BME280;46125;61.360;-149.532;2022-11-14T00:23:26;97437.30;;;3.26;56.92
60267;BME280;46125;61.360;-149.532;2022-11-14T00:25:54;97418.29;;;3.64;56.06
60267;BME280;46125;61.360;-149.532;2022-11-14T00:28:23;97415.73;;;2.52;57.78
60267;BME280;46125;61.360;-149.532;2022-11-14T00:30:52;97425.49;;;3.78;55.23
60267;BME280;46125;61.360;-149.532;2022-11-14T00:33:20;97416.51;;;3.20;55.43
60267;BME280;46125;61.360;-149.532;2022-11-14T00:35:53;97421.41;;;3.45;55.06
60267;BME280;46125;61.360;-149.532;2022-11-14T00:38:22;97427.88;;;4.50;52.35
60267;BME280;46125;61.360;-149.532;2022-11-14T00:40:51;97427.82;;;5.24;51.51
60267;BME280;46125;61.360;-149.532;2022-11-14T00:43:20;97433.99;;;4.39;54.26
60267;BME280;46125;61.360;-149.532;2022-11-14T00:45:48;97433.96;;;3.83;55.66
60267;BME280;46125;61.360;-149.532;2022-11-14T00:48:18;97443.49;;;3.82;55.64
60267;BME280;46125;61.360;-149.532;2022-11-14T00:50:46;97451.03;;;3.60;56.41
60267;BME280;46125;61.360;-149.532;2022-11-14T00:53:15;97440.02;;;3.93;55.28
60267;BME280;46125;61.360;-149.532;2022-11-14T00:55:43;97434.62;;;4.05;54.38
60267;BME280;46125;61.360;-149.532;2022-11-14T00:58:12;97425.26;;;4.15;53.99
60267;BME280;46125;61.360;-149.532;2022-11-14T01:00:41;97420.21;;;4.76;53.89
60267;BME280;46125;61.360;-149.532;2022-11-14T01:03:09;97410.16;;;4.50;54.11
60267;BME280;46125;61.360;-149.532;2022-11-14T01:05:41;97409.20;;;5.01;52.94
60267;BME280;46125;61.360;-149.532;2022-11-14T01:08:09;97409.48;;;5.57;52.36
60267;BME280;46125;61.360;-149.532;2022-11-14T01:10:39;97403.80;;;4.60;53.65
60267;BME280;46125;61.360;-149.532;2022-11-14T01:13:09;97408.26;;;5.43;52.86
60267;BME280;46125;61.360;-149.532;2022-11-14T01:15:39;97413.06;;;4.53;55.58
60267;BME280;46125;61.360;-149.532;2022-11-14T01:18:09;97417.65;;;3.45;58.63
60267;BME280;46125;61.360;-149.532;2022-11-14T01:20:39;97411.14;;;4.43;56.47
60267;BME280;46125;61.360;-149.532;2022-11-14T01:23:08;97405.97;;;3.96;57.47
60267;BME280;46125;61.360;-149.532;2022-11-14T01:25:38;97407.50;;;3.40;58.89
60267;BME280;46125;61.360;-149.532;2022-11-14T01:28:09;97412.66;;;3.76;58.47
60267;BME280;46125;61.360;-149.532;2022-11-14T01:30:38;97406.33;;;4.20;56.86
60267;BME280;46125;61.360;-149.532;2022-11-14T01:33:07;97408.23;;;3.40;59.22
60267;BME280;46125;61.360;-149.532;2022-11-14T01:35:37;97403.73;;;3.71;58.75
60267;BME280;46125;61.360;-149.532;2022-11-14T01:38:06;97397.61;;;3.96;57.77
60267;BME280;46125;61.360;-149.532;2022-11-14T01:40:39;97401.70;;;4.25;57.60
60267;BME280;46125;61.360;-149.532;2022-11-14T01:43:23;97399.31;;;4.04;58.02
60267;BME280;46125;61.360;-149.532;2022-11-14T01:45:54;97397.96;;;3.67;58.13
60267;BME280;46125;61.360;-149.532;2022-11-14T01:48:29;97404.41;;;3.39;58.55
60267;BME280;46125;61.360;-149.532;2022-11-14T01:51:02;97411.54;;;2.65;61.96
60267;BME280;46125;61.360;-149.532;2022-11-14T01:53:32;97407.77;;;3.31;58.89
60267;BME280;46125;61.360;-149.532;2022-11-14T01:56:03;97420.88;;;2.81;60.57
60267;BME280;46125;61.360;-149.532;2022-11-14T01:58:35;97415.76;;;3.68;60.04
60267;BME280;46125;61.360;-149.532;2022-11-14T02:01:05;97425.55;;;2.91;61.05
60267;BME280;46125;61.360;-149.532;2022-11-14T02:03:36;97426.09;;;3.61;60.16
60267;BME280;46125;61.360;-149.532;2022-11-14T02:06:08;97436.38;;;3.15;60.76
60267;BME280;46125;61.360;-149.532;2022-11-14T02:08:39;97431.51;;;3.26;60.44
60267;BME280;46125;61.360;-149.532;2022-11-14T02:11:10;97420.30;;;3.76;58.97
60267;BME280;46125;61.360;-149.532;2022-11-14T02:13:39;97411.81;;;3.85;58.39
60267;BME280;46125;61.360;-149.532;2022-11-14T02:16:07;97410.20;;;2.95;62.30
60267;BME280;46125;61.360;-149.532;2022-11-14T02:18:35;97417.44;;;3.34;59.79
60267;BME280;46125;61.360;-149.532;2022-11-14T02:21:04;97426.81;;;4.35;57.21
60267;BME280;46125;61.360;-149.532;2022-11-14T02:23:33;97431.35;;;4.57;56.43
60267;BME280;46125;61.360;-149.532;2022-11-14T02:26:02;97438.25;;;3.20;58.96
60267;BME280;46125;61.360;-149.532;2022-11-14T02:28:31;97441.82;;;4.14;57.48
60267;BME280;46125;61.360;-149.532;2022-11-14T02:30:59;97433.70;;;3.72;58.89
60267;BME280;46125;61.360;-149.532;2022-11-14T02:33:27;97433.47;;;3.31;60.71
60267;BME280;46125;61.360;-149.532;2022-11-14T02:35:56;97437.18;;;3.33;61.15
60267;BME280;46125;61.360;-149.532;2022-11-14T02:38:25;97436.92;;;3.87;59.88
60267;BME280;46125;61.360;-149.532;2022-11-14T02:40:53;97452.90;;;2.97;60.62
60267;BME280;46125;61.360;-149.532;2022-11-14T02:43:22;97459.65;;;3.19;61.11
60267;BME280;46125;61.360;-149.532;2022-11-14T02:45:50;97451.69;;;2.92;61.79
60267;BME280;46125;61.360;-149.532;2022-11-14T02:48:19;97462.31;;;2.00;64.31
60267;BME280;46125;61.360;-149.532;2022-11-14T02:50:49;97481.13;;;1.53;66.53
60267;BME280;46125;61.360;-149.532;2022-11-14T02:53:17;97484.31;;;1.92;65.66
60267;BME280;46125;61.360;-149.532;2022-11-14T02:55:45;97490.24;;;1.54;68.25
60267;BME280;46125;61.360;-149.532;2022-11-14T02:58:14;97483.70;;;1.29;68.52
60267;BME280;46125;61.360;-149.532;2022-11-14T03:00:42;97482.21;;;1.16;69.25
60267;BME280;46125;61.360;-149.532;2022-11-14T03:03:10;97485.65;;;0.82;71.55
60267;BME280;46125;61.360;-149.532;2022-11-14T03:05:39;97489.53;;;1.13;71.21
60267;BME280;46125;61.360;-149.532;2022-11-14T03:08:07;97500.20;;;0.89;71.30
60267;BME280;46125;61.360;-149.532;2022-11-14T03:10:36;97511.11;;;0.72;70.58
60267;BME280;46125;61.360;-149.532;2022-11-14T03:13:04;97519.67;;;1.46;68.88
60267;BME280;46125;61.360;-149.532;2022-11-14T03:15:36;97526.53;;;1.93;67.01
60267;BME280;46125;61.360;-149.532;2022-11-14T03:18:05;97531.35;;;1.42;69.00
60267;BME280;46125;61.360;-149.532;2022-11-14T03:20:34;97540.02;;;1.43;68.74
60267;BME280;46125;61.360;-149.532;2022-11-14T03:23:02;97548.88;;;1.76;68.36
60267;BME280;46125;61.360;-149.532;2022-11-14T03:25:31;97547.23;;;0.85;72.27
60267;BME280;46125;61.360;-149.532;2022-11-14T03:28:00;97558.51;;;0.66;72.30
60267;BME280;46125;61.360;-149.532;2022-11-14T03:30:29;97561.70;;;0.91;72.37
60267;BME280;46125;61.360;-149.532;2022-11-14T03:32:57;97572.50;;;0.46;72.97
60267;BME280;46125;61.360;-149.532;2022-11-14T03:35:25;97578.14;;;0.35;73.78
60267;BME280;46125;61.360;-149.532;2022-11-14T03:37:53;97590.60;;;1.53;70.04
60267;BME280;46125;61.360;-149.532;2022-11-14T03:40:22;97595.31;;;1.77;69.36
60267;BME280;46125;61.360;-149.532;2022-11-14T03:42:51;97602.67;;;1.53;68.56
60267;BME280;46125;61.360;-149.532;2022-11-14T03:45:20;97619.20;;;1.47;69.52
60267;BME280;46125;61.360;-149.532;2022-11-14T03:47:48;97617.25;;;1.20;69.83
60267;BME280;46125;61.360;-149.532;2022-11-14T03:50:17;97627.49;;;2.26;67.48
60267;BME280;46125;61.360;-149.532;2022-11-14T03:52:49;97643.69;;;2.31;66.96
60267;BME280;46125;61.360;-149.532;2022-11-14T03:55:18;97648.28;;;1.83;67.04
60267;BME280;46125;61.360;-149.532;2022-11-14T03:57:46;97651.59;;;1.93;66.76
60267;BME280;46125;61.360;-149.532;2022-11-14T04:00:15;97656.05;;;2.27;66.45
60267;BME280;46125;61.360;-149.532;2022-11-14T04:02:44;97664.26;;;2.07;66.34
60267;BME280;46125;61.360;-149.532;2022-11-14T04:05:12;97682.64;;;1.24;68.15
60267;BME280;46125;61.360;-149.532;2022-11-14T04:07:41;97691.07;;;2.28;65.50
60267;BME280;46125;61.360;-149.532;2022-11-14T04:10:09;97688.82;;;2.56;64.64
60267;BME280;46125;61.360;-149.532;2022-11-14T04:12:38;97689.25;;;2.14;65.91
60267;BME280;46125;61.360;-149.532;2022-11-14T04:15:07;97702.42;;;1.72;67.52
60267;BME280;46125;61.360;-149.532;2022-11-14T04:17:36;97709.03;;;1.61;68.27
60267;BME280;46125;61.360;-149.532;2022-11-14T04:20:05;97712.42;;;1.38;68.29
60267;BME280;46125;61.360;-149.532;2022-11-14T04:22:34;97710.00;;;1.97;65.51
60267;BME280;46125;61.360;-149.532;2022-11-14T04:25:03;97710.44;;;2.37;64.29
60267;BME280;46125;61.360;-149.532;2022-11-14T04:27:31;97722.61;;;2.57;63.64
60267;BME280;46125;61.360;-149.532;2022-11-14T04:30:00;97742.93;;;2.61;64.51
60267;BME280;46125;61.360;-149.532;2022-11-14T04:32:33;97762.02;;;1.87;66.12
60267;BME280;46125;61.360;-149.532;2022-11-14T04:35:08;97777.34;;;1.29;67.88
60267;BME280;46125;61.360;-149.532;2022-11-14T04:37:36;97791.06;;;1.22;68.54
60267;BME280;46125;61.360;-149.532;2022-11-14T04:40:06;97812.25;;;0.52;69.41
60267;BME280;46125;61.360;-149.532;2022-11-14T04:42:35;97830.65;;;0.52;70.50
60267;BME280;46125;61.360;-149.532;2022-11-14T04:45:07;97856.42;;;-0.24;74.27
60267;BME280;46125;61.360;-149.532;2022-11-14T04:47:36;97880.28;;;-0.44;75.86
60267;BME280;46125;61.360;-149.532;2022-11-14T04:50:05;97902.12;;;-0.60;76.78
60267;BME280;46125;61.360;-149.532;2022-11-14T04:52:35;97922.19;;;-0.95;77.81
60267;BME280;46125;61.360;-149.532;2022-11-14T04:55:05;97934.96;;;-0.82;78.52
60267;BME280;46125;61.360;-149.532;2022-11-14T04:57:34;97948.58;;;-0.96;78.72
60267;BME280;46125;61.360;-149.532;2022-11-14T05:00:04;97953.61;;;-0.85;78.64
60267;BME280;46125;61.360;-149.532;2022-11-14T05:02:32;97966.85;;;-1.27;79.58
60267;BME280;46125;61.360;-149.532;2022-11-14T05:05:02;97993.28;;;-0.91;79.64
60267;BME280;46125;61.360;-149.532;2022-11-14T05:07:32;98006.98;;;-1.84;80.94
60267;BME280;46125;61.360;-149.532;2022-11-14T05:10:06;98021.99;;;-0.88;79.88
60267;BME280;46125;61.360;-149.532;2022-11-14T05:12:34;98032.49;;;-1.14;78.96
60267;BME280;46125;61.360;-149.532;2022-11-14T05:15:03;98055.95;;;-1.00;79.47
60267;BME280;46125;61.360;-149.532;2022-11-14T05:17:31;98069.33;;;-1.37;80.89
60267;BME280;46125;61.360;-149.532;2022-11-14T05:20:00;98090.79;;;-0.75;78.56
60267;BME280;46125;61.360;-149.532;2022-11-14T05:22:29;98105.55;;;-1.40;80.32
60267;BME280;46125;61.360;-149.532;2022-11-14T05:24:57;98129.80;;;-1.29;80.91
60267;BME280;46125;61.360;-149.532;2022-11-14T05:27:27;98138.19;;;-1.99;81.71
60267;BME280;46125;61.360;-149.532;2022-11-14T05:29:56;98158.71;;;-1.72;81.09
60267;BME280;46125;61.360;-149.532;2022-11-14T05:32:24;98176.24;;;-1.99;83.47
60267;BME280;46125;61.360;-149.532;2022-11-14T05:34:53;98183.86;;;-2.33;83.76
60267;BME280;46125;61.360;-149.532;2022-11-14T05:37:22;98194.25;;;-1.75;81.68
60267;BME280;46125;61.360;-149.532;2022-11-14T05:39:50;98205.41;;;-2.09;83.78
60267;BME280;46125;61.360;-149.532;2022-11-14T05:42:19;98212.68;;;-1.96;83.81
60267;BME280;46125;61.360;-149.532;2022-11-14T05:44:48;98218.79;;;-1.20;82.23
60267;BME280;46125;61.360;-149.532;2022-11-14T05:47:16;98226.60;;;-1.56;83.91
60267;BME280;46125;61.360;-149.532;2022-11-14T05:49:45;98236.49;;;-2.23;84.13
60267;BME280;46125;61.360;-149.532;2022-11-14T05:52:15;98263.24;;;-1.67;84.52
60267;BME280;46125;61.360;-149.532;2022-11-14T05:54:44;98263.08;;;-2.43;86.57
60267;BME280;46125;61.360;-149.532;2022-11-14T05:57:14;98291.97;;;-2.51;89.13
60267;BME280;46125;61.360;-149.532;2022-11-14T05:59:42;98305.35;;;-2.25;87.48
60267;BME280;46125;61.360;-149.532;2022-11-14T06:02:11;98325.48;;;-2.43;90.10
60267;BME280;46125;61.360;-149.532;2022-11-14T06:04:39;98347.24;;;-2.61;89.74
60267;BME280;46125;61.360;-149.532;2022-11-14T06:07:08;98359.89;;;-2.41;89.71
60267;BME280;46125;61.360;-149.532;2022-11-14T06:09:37;98376.55;;;-2.47;89.54
60267;BME280;46125;61.360;-149.532;2022-11-14T06:12:06;98390.32;;;-2.26;89.08
60267;BME280;46125;61.360;-149.532;2022-11-14T06:14:35;98402.52;;;-1.75;86.84
60267;BME280;46125;61.360;-149.532;2022-11-14T06:17:08;98413.79;;;-1.85;87.49
60267;BME280;46125;61.360;-149.532;2022-11-14T06:19:37;98431.45;;;-2.03;88.26
60267;BME280;46125;61.360;-149.532;2022-11-14T06:22:06;98440.24;;;-2.37;87.61
60267;BME280;46125;61.360;-149.532;2022-11-14T06:24:34;98447.11;;;-1.91;85.91
60267;BME280;46125;61.360;-149.532;2022-11-14T06:27:03;98459.47;;;-2.12;86.56
60267;BME280;46125;61.360;-149.532;2022-11-14T06:29:32;98462.94;;;-2.39;87.11
60267;BME280;46125;61.360;-149.532;2022-11-14T06:32:06;98480.71;;;-2.28;86.39
60267;BME280;46125;61.360;-149.532;2022-11-14T06:34:35;98485.95;;;-2.13;87.37
60267;BME280;46125;61.360;-149.532;2022-11-14T06:37:05;98497.45;;;-2.00;86.98
60267;BME280;46125;61.360;-149.532;2022-11-14T06:39:33;98512.17;;;-2.22;87.82
60267;BME280;46125;61.360;-149.532;2022-11-14T06:42:02;98523.63;;;-1.89;87.08
60267;BME280;46125;61.360;-149.532;2022-11-14T06:44:30;98545.64;;;-1.87;87.00
60267;BME280;46125;61.360;-149.532;2022-11-14T06:47:00;98553.71;;;-1.81;85.32
60267;BME280;46125;61.360;-149.532;2022-11-14T06:49:29;98559.61;;;-1.66;84.45
60267;BME280;46125;61.360;-149.532;2022-11-14T06:51:58;98575.30;;;-2.18;84.37
60267;BME280;46125;61.360;-149.532;2022-11-14T06:54:27;98579.46;;;-1.57;84.10
60267;BME280;46125;61.360;-149.532;2022-11-14T06:56:55;98581.72;;;-1.39;83.42
60267;BME280;46125;61.360;-149.532;2022-11-14T06:59:24;98592.56;;;-1.45;83.57
60267;BME280;46125;61.360;-149.532;2022-11-14T07:01:53;98594.93;;;-1.13;82.85
60267;BME280;46125;61.360;-149.532;2022-11-14T07:04:21;98597.23;;;-1.29;84.42
60267;BME280;46125;61.360;-149.532;2022-11-14T07:06:50;98604.53;;;-1.28;83.56
60267;BME280;46125;61.360;-149.532;2022-11-14T07:09:19;98611.17;;;-1.59;82.99
60267;BME280;46125;61.360;-149.532;2022-11-14T07:11:47;98617.49;;;-0.92;82.97
60267;BME280;46125;61.360;-149.532;2022-11-14T07:14:16;98629.50;;;-0.61;81.44
60267;BME280;46125;61.360;-149.532;2022-11-14T07:16:44;98636.98;;;-1.10;83.62
60267;BME280;46125;61.360;-149.532;2022-11-14T07:19:13;98645.68;;;-0.89;83.02
60267;BME280;46125;61.360;-149.532;2022-11-14T07:21:42;98655.83;;;-0.87;81.10
60267;BME280;46125;61.360;-149.532;2022-11-14T07:24:10;98661.76;;;-0.80;81.91
60267;BME280;46125;61.360;-149.532;2022-11-14T07:26:45;98651.28;;;-0.96;82.98
60267;BME280;46125;61.360;-149.532;2022-11-14T07:29:14;98668.18;;;-0.86;82.82
60267;BME280;46125;61.360;-149.532;2022-11-14T07:31:42;98670.17;;;-0.75;82.94
60267;BME280;46125;61.360;-149.532;2022-11-14T07:34:11;98669.03;;;-0.81;83.05
60267;BME280;46125;61.360;-149.532;2022-11-14T07:36:39;98671.40;;;-0.09;81.77
60267;BME280;46125;61.360;-149.532;2022-11-14T07:39:08;98681.89;;;-0.58;80.96
60267;BME280;46125;61.360;-149.532;2022-11-14T07:41:36;98693.44;;;-0.63;80.54
60267;BME280;46125;61.360;-149.532;2022-11-14T07:44:06;98697.71;;;-0.75;81.19
60267;BME280;46125;61.360;-149.532;2022-11-14T07:46:34;98713.18;;;-0.57;81.05
60267;BME280;46125;61.360;-149.532;2022-11-14T07:49:03;98728.06;;;-0.94;82.14
60267;BME280;46125;61.360;-149.532;2022-11-14T07:51:32;98720.54;;;-0.93;82.10
60267;BME280;46125;61.360;-149.532;2022-11-14T07:54:00;98729.38;;;-0.59;81.74
60267;BME280;46125;61.360;-149.532;2022-11-14T07:56:29;98740.44;;;-0.83;82.64
60267;BME280;46125;61.360;-149.532;2022-11-14T07:58:58;98748.70;;;-0.76;82.91
60267;BME280;46125;61.360;-149.532;2022-11-14T08:01:28;98756.20;;;-0.86;81.24
60267;BME280;46125;61.360;-149.532;2022-11-14T08:03:56;98768.60;;;-0.50;81.80
60267;BME280;46125;61.360;-149.532;2022-11-14T08:06:25;98780.72;;;-0.79;82.91
60267;BME280;46125;61.360;-149.532;2022-11-14T08:08:54;98795.69;;;-0.29;81.58
60267;BME280;46125;61.360;-149.532;2022-11-14T08:11:23;98807.71;;;-0.37;81.27
60267;BME280;46125;61.360;-149.532;2022-11-14T08:13:51;98809.57;;;-0.60;81.26
60267;BME280;46125;61.360;-149.532;2022-11-14T08:16:20;98814.03;;;-0.44;81.76
60267;BME280;46125;61.360;-149.532;2022-11-14T08:18:49;98830.59;;;-0.58;81.47
60267;BME280;46125;61.360;-149.532;2022-11-14T08:21:17;98830.17;;;-0.67;80.57
60267;BME280;46125;61.360;-149.532;2022-11-14T08:23:45;98837.23;;;-0.65;81.61
60267;BME280;46125;61.360;-149.532;2022-11-14T08:26:14;98846.58;;;-0.62;82.15
60267;BME280;46125;61.360;-149.532;2022-11-14T08:28:43;98849.43;;;-0.49;82.04
60267;BME280;46125;61.360;-149.532;2022-11-14T08:31:11;98851.77;;;-0.30;81.36
60267;BME280;46125;61.360;-149.532;2022-11-14T08:33:40;98862.40;;;-0.11;79.24
60267;BME280;46125;61.360;-149.532;2022-11-14T08:36:10;98864.80;;;-0.19;79.42
60267;BME280;46125;61.360;-149.532;2022-11-14T08:38:39;98871.80;;;-0.30;80.12
60267;BME280;46125;61.360;-149.532;2022-11-14T08:41:08;98876.20;;;0.04;80.22
60267;BME280;46125;61.360;-149.532;2022-11-14T08:43:37;98887.10;;;-0.17;79.56
60267;BME280;46125;61.360;-149.532;2022-11-14T08:46:08;98891.18;;;0.03;79.16
60267;BME280;46125;61.360;-149.532;2022-11-14T08:48:40;98907.64;;;-0.49;81.97
60267;BME280;46125;61.360;-149.532;2022-11-14T08:51:09;98913.07;;;-0.63;82.25
60267;BME280;46125;61.360;-149.532;2022-11-14T08:53:38;98911.39;;;-0.18;81.46
60267;BME280;46125;61.360;-149.532;2022-11-14T08:56:07;98921.34;;;-0.53;81.82
60267;BME280;46125;61.360;-149.532;2022-11-14T08:58:36;98932.68;;;-0.14;80.04
60267;BME280;46125;61.360;-149.532;2022-11-14T09:01:06;98932.02;;;-0.51;81.45
60267;BME280;46125;61.360;-149.532;2022-11-14T09:03:35;98940.15;;;-0.38;82.13
60267;BME280;46125;61.360;-149.532;2022-11-14T09:06:04;98941.50;;;-0.78;82.16
60267;BME280;46125;61.360;-149.532;2022-11-14T09:08:32;98940.95;;;-0.24;81.48
60267;BME280;46125;61.360;-149.532;2022-11-14T09:11:01;98947.01;;;-0.38;81.59
60267;BME280;46125;61.360;-149.532;2022-11-14T09:13:32;98957.24;;;-0.44;81.35
60267;BME280;46125;61.360;-149.532;2022-11-14T09:16:01;98966.47;;;0.11;79.21
60267;BME280;46125;61.360;-149.532;2022-11-14T09:18:29;98969.70;;;0.22;77.91
60267;BME280;46125;61.360;-149.532;2022-11-14T09:21:00;98977.87;;;0.20;77.31
60267;BME280;46125;61.360;-149.532;2022-11-14T09:23:29;98967.17;;;-0.28;79.24
60267;BME280;46125;61.360;-149.532;2022-11-14T09:25:57;98977.80;;;-0.24;80.37
60267;BME280;46125;61.360;-149.532;2022-11-14T09:28:26;98984.28;;;-0.38;80.18
60267;BME280;46125;61.360;-149.532;2022-11-14T09:31:00;98995.67;;;0.03;77.46
60267;BME280;46125;61.360;-149.532;2022-11-14T09:33:28;99011.86;;;0.41;74.89
60267;BME280;46125;61.360;-149.532;2022-11-14T09:35:57;99027.99;;;0.32;74.43
60267;BME280;46125;61.360;-149.532;2022-11-14T09:38:26;99039.10;;;0.85;74.81
60267;BME280;46125;61.360;-149.532;2022-11-14T09:41:04;99049.43;;;0.54;73.25
60267;BME280;46125;61.360;-149.532;2022-11-14T09:43:56;99059.00;;;0.55;74.38
60267;BME280;46125;61.360;-149.532;2022-11-14T16:38:31;99921.04;;;-2.68;100.00
60267;BME280;46125;61.360;-149.532;2022-11-14T16:41:00;99923.37;;;-0.46;85.65
60267;BME280;46125;61.360;-149.532;2022-11-14T16:43:28;99925.33;;;1.54;75.32
60267;BME280;46125;61.360;-149.532;2022-11-14T16:45:57;99931.02;;;2.60;71.20
60267;BME280;46125;61.360;-149.532;2022-11-14T16:48:29;99936.96;;;1.93;69.09
60267;BME280;46125;61.360;-149.532;2022-11-14T16:51:00;99944.11;;;1.81;70.39
60267;BME280;46125;61.360;-149.532;2022-11-14T16:53:29;99957.79;;;1.49;70.65
60267;BME280;46125;61.360;-149.532;2022-11-14T16:55:57;99964.34;;;2.23;67.95
60267;BME280;46125;61.360;-149.532;2022-11-14T16:58:26;99966.71;;;2.62;67.79
60267;BME280;46125;61.360;-149.532;2022-11-14T17:00:55;99968.99;;;3.20;65.66
60267;BME280;46125;61.360;-149.532;2022-11-14T17:03:23;99975.39;;;3.16;64.30
60267;BME280;46125;61.360;-149.532;2022-11-14T17:05:52;99984.17;;;2.68;65.10
60267;BME280;46125;61.360;-149.532;2022-11-14T17:08:21;99986.46;;;3.52;63.73
60267;BME280;46125;61.360;-149.532;2022-11-14T17:10:49;99991.00;;;3.81;62.18
60267;BME280;46125;61.360;-149.532;2022-11-14T17:13:18;99996.06;;;3.54;62.23
60267;BME280;46125;61.360;-149.532;2022-11-14T17:15:46;99999.52;;;4.64;60.77
60267;BME280;46125;61.360;-149.532;2022-11-14T17:18:15;100003.36;;;3.01;60.66
60267;BME280;46125;61.360;-149.532;2022-11-14T17:20:44;100010.78;;;4.46;59.78
60267;BME280;46125;61.360;-149.532;2022-11-14T17:23:12;100014.53;;;4.99;57.81
60267;BME280;46125;61.360;-149.532;2022-11-14T17:25:41;100022.49;;;4.93;56.37
60267;BME280;46125;61.360;-149.532;2022-11-14T17:28:09;100027.98;;;5.10;56.50
60267;BME280;46125;61.360;-149.532;2022-11-14T17:30:40;100029.36;;;3.19;59.87
60267;BME280;46125;61.360;-149.532;2022-11-14T17:33:09;100032.11;;;4.06;59.42
60267;BME280;46125;61.360;-149.532;2022-11-14T17:35:37;100035.69;;;4.79;57.47
60267;BME280;46125;61.360;-149.532;2022-11-14T17:38:06;100042.74;;;4.92;56.51
60267;BME280;46125;61.360;-149.532;2022-11-14T17:40:36;100048.18;;;4.91;56.54
60267;BME280;46125;61.360;-149.532;2022-11-14T17:43:05;100051.21;;;3.36;59.85
60267;BME280;46125;61.360;-149.532;2022-11-14T17:45:33;100058.09;;;4.39;58.37
60267;BME280;46125;61.360;-149.532;2022-11-14T17:48:02;100062.20;;;5.00;57.10
60267;BME280;46125;61.360;-149.532;2022-11-14T17:50:30;100073.24;;;5.07;56.40
60267;BME280;46125;61.360;-149.532;2022-11-14T17:52:59;100078.55;;;4.88;56.32
60267;BME280;46125;61.360;-149.532;2022-11-14T17:55:28;100086.18;;;4.67;57.01
60267;BME280;46125;61.360;-149.532;2022-11-14T17:57:56;100089.12;;;5.56;55.71
60267;BME280;46125;61.360;-149.532;2022-11-14T18:00:25;100092.91;;;5.39;55.09
60267;BME280;46125;61.360;-149.532;2022-11-14T18:02:53;100098.02;;;5.61;54.42
60267;BME280;46125;61.360;-149.532;2022-11-14T18:05:22;100111.64;;;5.76;53.65
60267;BME280;46125;61.360;-149.532;2022-11-14T18:07:51;100116.25;;;5.83;53.51
60267;BME280;46125;61.360;-149.532;2022-11-14T18:10:19;100122.49;;;5.66;53.47
60267;BME280;46125;61.360;-149.532;2022-11-14T18:12:48;100125.29;;;5.61;53.26
60267;BME280;46125;61.360;-149.532;2022-11-14T18:15:17;100131.71;;;5.83;52.28
60267;BME280;46125;61.360;-149.532;2022-11-14T18:17:45;100135.30;;;6.16;51.96
60267;BME280;46125;61.360;-149.532;2022-11-14T18:20:13;100142.92;;;5.91;50.99
60267;BME280;46125;61.360;-149.532;2022-11-14T18:22:42;100150.60;;;6.11;50.63
60267;BME280;46125;61.360;-149.532;2022-11-14T18:25:11;100157.70;;;6.29;49.79
60267;BME280;46125;61.360;-149.532;2022-11-14T18:27:39;100160.53;;;6.36;49.58
60267;BME280;46125;61.360;-149.532;2022-11-14T18:30:09;100164.10;;;6.05;49.34
60267;BME280;46125;61.360;-149.532;2022-11-14T18:32:37;100169.94;;;6.41;48.57
60267;BME280;46125;61.360;-149.532;2022-11-14T18:35:07;100171.77;;;6.55;48.49
60267;BME280;46125;61.360;-149.532;2022-11-14T18:37:36;100178.25;;;7.16;48.38
60267;BME280;46125;61.360;-149.532;2022-11-14T18:40:05;100182.29;;;7.00;48.15
60267;BME280;46125;61.360;-149.532;2022-11-14T18:42:35;100188.55;;;6.77;48.30
60267;BME280;46125;61.360;-149.532;2022-11-14T18:45:04;100195.03;;;7.01;48.19
60267;BME280;46125;61.360;-149.532;2022-11-14T18:47:33;100202.17;;;6.78;48.01
60267;BME280;46125;61.360;-149.532;2022-11-14T18:50:01;100210.67;;;6.85;47.91
60267;BME280;46125;61.360;-149.532;2022-11-14T18:52:30;100219.14;;;6.90;47.59
60267;BME280;46125;61.360;-149.532;2022-11-14T18:54:59;100228.86;;;6.92;47.46
60267;BME280;46125;61.360;-149.532;2022-11-14T18:57:27;100239.06;;;6.98;47.37
60267;BME280;46125;61.360;-149.532;2022-11-14T18:59:56;100245.77;;;7.00;46.91
60267;BME280;46125;61.360;-149.532;2022-11-14T19:02:24;100253.72;;;6.94;46.56
60267;BME280;46125;61.360;-149.532;2022-11-14T19:04:53;100258.66;;;6.73;46.72
60267;BME280;46125;61.360;-149.532;2022-11-14T19:07:21;100260.85;;;6.58;47.17
60267;BME280;46125;61.360;-149.532;2022-11-14T19:09:50;100269.84;;;6.37;47.59
60267;BME280;46125;61.360;-149.532;2022-11-14T19:12:19;100278.38;;;6.80;47.46
60267;BME280;46125;61.360;-149.532;2022-11-14T19:14:48;100285.82;;;6.32;48.53
60267;BME280;46125;61.360;-149.532;2022-11-14T19:17:17;100291.35;;;6.44;48.31
60267;BME280;46125;61.360;-149.532;2022-11-14T19:19:47;100297.57;;;7.01;47.85
60267;BME280;46125;61.360;-149.532;2022-11-14T19:22:16;100299.53;;;7.03;47.70
60267;BME280;46125;61.360;-149.532;2022-11-14T19:24:44;100303.81;;;7.17;47.62
60267;BME280;46125;61.360;-149.532;2022-11-14T19:27:13;100310.76;;;7.25;47.67
60267;BME280;46125;61.360;-149.532;2022-11-14T19:29:41;100320.36;;;7.17;48.08
60267;BME280;46125;61.360;-149.532;2022-11-14T19:32:10;100329.49;;;6.62;49.64
60267;BME280;46125;61.360;-149.532;2022-11-14T19:34:38;100335.20;;;6.34;50.47
60267;BME280;46125;61.360;-149.532;2022-11-14T19:37:07;100343.90;;;6.51;50.40